sensor_id;sensor_type;location;lat;lon;timestamp;temperature;humidity
12682;DHT22;6405;59.208;18.216;2023-05-14T00:00:50;4.70;99.90
12682;DHT22;6405;59.208;18.216;2023-05-14T00:03:16;4.50;99.90
12682;DHT22;6405;59.208;18.216;2023-05-14T00:05:41;4.50;99.90
12682;DHT22;6405;59.208;18.216;2023-05-14T00:08:07;4.50;99.90
12682;DHT22;6405;59.208;18.216;2023-05-14T00:10:33;4.40;99.90
12682;DHT22;6405;59.208;18.216;2023-05-14T00:12:58;4.40;99.90
12682;DHT22;6405;59.208;18.216;2023-05-14T00:15:24;4.40;99.90
12682;DHT22;6405;59.208;18.216;2023-05-14T00:17:49;4.40;99.90
12682;DHT22;6405;59.208;18.216;2023-05-14T00:20:15;4.40;99.90
12682;DHT22;6405;59.208;18.216;2023-05-14T00:22:41;4.30;99.90
12682;DHT22;6405;59.208;18.216;2023-05-14T00:25:07;4.30;99.90
12682;DHT22;6405;59.208;18.216;2023-05-14T00:27:34;4.30;99.90
12682;DHT22;6405;59.208;18.216;2023-05-14T00:30:00;4.30;99.90
12682;DHT22;6405;59.208;18.216;2023-05-14T00:32:25;4.30;99.90
12682;DHT22;6405;59.208;18.216;2023-05-14T00:34:51;4.20;99.90
12682;DHT22;6405;59.208;18.216;2023-05-14T00:37:17;4.20;99.90
12682;DHT22;6405;59.208;18.216;2023-05-14T00:39:43;4.20;99.90
12682;DHT22;6405;59.208;18.216;2023-05-14T00:42:08;4.20;99.90
12682;DHT22;6405;59.208;18.216;2023-05-14T00:44:34;4.20;99.90
12682;DHT22;6405;59.208;18.216;2023-05-14T00:47:00;4.10;99.90
12682;DHT22;6405;59.208;18.216;2023-05-14T00:49:26;4.10;99.90
12682;DHT22;6405;59.208;18.216;2023-05-14T00:51:53;4.10;99.90
12682;DHT22;6405;59.208;18.216;2023-05-14T00:54:19;4.10;99.90
12682;DHT22;6405;59.208;18.216;2023-05-14T00:56:46;4.10;99.90
12682;DHT22;6405;59.208;18.216;2023-05-14T00:59:12;4.10;99.90
12682;DHT22;6405;59.208;18.216;2023-05-14T01:01:38;4.00;99.90
12682;DHT22;6405;59.208;18.216;2023-05-14T01:04:05;4.00;99.90
12682;DHT22;6405;59.208;18.216;2023-05-14T01:09:41;4.00;99.90
12682;DHT22;6405;59.208;18.216;2023-05-14T01:12:35;4.00;99.90
12682;DHT22;6405;59.208;18.216;2023-05-14T01:17:32;3.90;99.90
12682;DHT22;6405;59.208;18.216;2023-05-14T01:20:00;3.90;99.90
12682;DHT22;6405;59.208;18.216;2023-05-14T01:22:27;3.90;99.90
12682;DHT22;6405;59.208;18.216;2023-05-14T01:24:52;3.90;99.90
12682;DHT22;6405;59.208;18.216;2023-05-14T01:27:59;3.90;99.90
12682;DHT22;6405;59.208;18.216;2023-05-14T01:31:06;3.90;99.90
12682;DHT22;6405;59.208;18.216;2023-05-14T01:33:33;3.90;99.90
12682;DHT22;6405;59.208;18.216;2023-05-14T01:35:59;3.90;99.90
12682;DHT22;6405;59.208;18.216;2023-05-14T01:38:26;3.90;99.90
12682;DHT22;6405;59.208;18.216;2023-05-14T01:40:55;3.90;99.90
12682;DHT22;6405;59.208;18.216;2023-05-14T01:43:21;3.80;99.90
12682;DHT22;6405;59.208;18.216;2023-05-14T01:45:48;3.80;99.90
12682;DHT22;6405;59.208;18.216;2023-05-14T01:48:14;3.80;99.90
12682;DHT22;6405;59.208;18.216;2023-05-14T01:50:39;3.80;99.90
12682;DHT22;6405;59.208;18.216;2023-05-14T01:53:05;3.80;99.90
12682;DHT22;6405;59.208;18.216;2023-05-14T01:55:31;3.80;99.90
12682;DHT22;6405;59.208;18.216;2023-05-14T01:57:56;3.80;99.90
12682;DHT22;6405;59.208;18.216;2023-05-14T02:00:23;3.80;99.90
12682;DHT22;6405;59.208;18.216;2023-05-14T02:02:52;3.80;99.90
12682;DHT22;6405;59.208;18.216;2023-05-14T02:05:17;3.80;99.90
12682;DHT22;6405;59.208;18.216;2023-05-14T02:07:43;3.80;99.90
12682;DHT22;6405;59.208;18.216;2023-05-14T02:10:09;3.80;99.90
12682;DHT22;6405;59.208;18.216;2023-05-14T02:12:35;3.80;99.90
12682;DHT22;6405;59.208;18.216;2023-05-14T02:15:01;3.80;99.90
12682;DHT22;6405;59.208;18.216;2023-05-14T02:17:28;3.80;99.90
12682;DHT22;6405;59.208;18.216;2023-05-14T02:19:53;3.80;99.90
12682;DHT22;6405;59.208;18.216;2023-05-14T02:22:19;3.80;99.90
12682;DHT22;6405;59.208;18.216;2023-05-14T02:24:45;3.80;99.90
12682;DHT22;6405;59.208;18.216;2023-05-14T02:27:10;3.80;99.90
12682;DHT22;6405;59.208;18.216;2023-05-14T02:29:37;3.80;99.90
12682;DHT22;6405;59.208;18.216;2023-05-14T02:32:04;3.80;99.90
12682;DHT22;6405;59.208;18.216;2023-05-14T02:34:29;3.80;99.90
12682;DHT22;6405;59.208;18.216;2023-05-14T02:36:55;3.80;99.90
12682;DHT22;6405;59.208;18.216;2023-05-14T02:39:21;3.80;99.90
12682;DHT22;6405;59.208;18.216;2023-05-14T02:41:46;3.80;99.90
12682;DHT22;6405;59.208;18.216;2023-05-14T02:44:12;3.80;99.90
12682;DHT22;6405;59.208;18.216;2023-05-14T02:46:38;3.80;99.90
12682;DHT22;6405;59.208;18.216;2023-05-14T02:49:03;3.90;99.90
12682;DHT22;6405;59.208;18.216;2023-05-14T02:51:29;3.90;99.90
12682;DHT22;6405;59.208;18.216;2023-05-14T02:53:55;3.90;99.90
12682;DHT22;6405;59.208;18.216;2023-05-14T02:56:20;3.80;99.90
12682;DHT22;6405;59.208;18.216;2023-05-14T02:58:46;3.90;99.90
12682;DHT22;6405;59.208;18.216;2023-05-14T03:01:12;3.90;99.90
12682;DHT22;6405;59.208;18.216;2023-05-14T03:03:39;3.90;99.90
12682;DHT22;6405;59.208;18.216;2023-05-14T03:06:04;4.00;99.90
12682;DHT22;6405;59.208;18.216;2023-05-14T03:08:30;4.00;99.90
12682;DHT22;6405;59.208;18.216;2023-05-14T03:10:56;4.00;99.90
12682;DHT22;6405;59.208;18.216;2023-05-14T03:13:22;4.00;99.90
12682;DHT22;6405;59.208;18.216;2023-05-14T03:15:48;4.00;99.90
12682;DHT22;6405;59.208;18.216;2023-05-14T03:18:13;4.10;99.90
12682;DHT22;6405;59.208;18.216;2023-05-14T03:20:39;4.10;99.90
12682;DHT22;6405;59.208;18.216;2023-05-14T03:23:05;4.20;99.90
12682;DHT22;6405;59.208;18.216;2023-05-14T03:25:31;4.20;99.90
12682;DHT22;6405;59.208;18.216;2023-05-14T03:27:56;4.30;99.90
12682;DHT22;6405;59.208;18.216;2023-05-14T03:30:22;4.30;99.90
12682;DHT22;6405;59.208;18.216;2023-05-14T03:32:49;4.40;99.90
12682;DHT22;6405;59.208;18.216;2023-05-14T03:35:15;4.40;99.90
12682;DHT22;6405;59.208;18.216;2023-05-14T03:37:40;4.40;99.90
12682;DHT22;6405;59.208;18.216;2023-05-14T03:40:06;4.50;99.90
12682;DHT22;6405;59.208;18.216;2023-05-14T03:42:32;4.50;99.90
12682;DHT22;6405;59.208;18.216;2023-05-14T03:44:58;4.60;99.90
12682;DHT22;6405;59.208;18.216;2023-05-14T03:47:23;4.70;99.90
12682;DHT22;6405;59.208;18.216;2023-05-14T03:49:50;4.70;99.90
12682;DHT22;6405;59.208;18.216;2023-05-14T03:52:15;4.80;99.90
12682;DHT22;6405;59.208;18.216;2023-05-14T03:54:41;4.80;99.90
12682;DHT22;6405;59.208;18.216;2023-05-14T03:57:07;4.90;99.90
12682;DHT22;6405;59.208;18.216;2023-05-14T03:59:32;4.90;99.90
12682;DHT22;6405;59.208;18.216;2023-05-14T04:01:58;5.00;99.90
12682;DHT22;6405;59.208;18.216;2023-05-14T04:04:23;5.00;99.90
12682;DHT22;6405;59.208;18.216;2023-05-14T04:06:49;5.10;99.90
12682;DHT22;6405;59.208;18.216;2023-05-14T04:09:15;5.10;99.90
12682;DHT22;6405;59.208;18.216;2023-05-14T04:11:40;5.20;99.90
12682;DHT22;6405;59.208;18.216;2023-05-14T04:14:06;5.30;99.90
12682;DHT22;6405;59.208;18.216;2023-05-14T04:16:32;5.40;99.90
12682;DHT22;6405;59.208;18.216;2023-05-14T04:18:58;5.50;99.90
12682;DHT22;6405;59.208;18.216;2023-05-14T04:21:24;5.60;99.90
12682;DHT22;6405;59.208;18.216;2023-05-14T04:23:50;5.60;99.90
12682;DHT22;6405;59.208;18.216;2023-05-14T04:26:16;5.80;99.90
12682;DHT22;6405;59.208;18.216;2023-05-14T04:28:41;5.90;99.90
12682;DHT22;6405;59.208;18.216;2023-05-14T04:31:08;6.00;99.90
12682;DHT22;6405;59.208;18.216;2023-05-14T04:33:33;6.10;99.90
12682;DHT22;6405;59.208;18.216;2023-05-14T04:35:59;6.20;99.90
12682;DHT22;6405;59.208;18.216;2023-05-14T04:38:25;6.30;99.90
12682;DHT22;6405;59.208;18.216;2023-05-14T04:40:51;6.40;99.90
12682;DHT22;6405;59.208;18.216;2023-05-14T04:43:16;6.40;99.90
12682;DHT22;6405;59.208;18.216;2023-05-14T04:45:42;6.60;99.90
12682;DHT22;6405;59.208;18.216;2023-05-14T04:48:08;6.70;99.90
12682;DHT22;6405;59.208;18.216;2023-05-14T04:50:33;6.80;99.90
12682;DHT22;6405;59.208;18.216;2023-05-14T04:52:59;6.90;99.90
12682;DHT22;6405;59.208;18.216;2023-05-14T04:55:25;7.10;99.90
12682;DHT22;6405;59.208;18.216;2023-05-14T04:57:51;7.20;99.90
12682;DHT22;6405;59.208;18.216;2023-05-14T05:00:17;7.30;99.90
12682;DHT22;6405;59.208;18.216;2023-05-14T05:02:43;7.50;99.90
12682;DHT22;6405;59.208;18.216;2023-05-14T05:05:09;7.70;99.90
12682;DHT22;6405;59.208;18.216;2023-05-14T05:07:35;7.80;99.90
12682;DHT22;6405;59.208;18.216;2023-05-14T05:10:01;7.90;99.90
12682;DHT22;6405;59.208;18.216;2023-05-14T05:12:26;8.00;99.90
12682;DHT22;6405;59.208;18.216;2023-05-14T05:14:55;8.20;99.90
12682;DHT22;6405;59.208;18.216;2023-05-14T05:17:23;8.30;99.90
12682;DHT22;6405;59.208;18.216;2023-05-14T05:19:49;8.40;99.90
12682;DHT22;6405;59.208;18.216;2023-05-14T05:22:14;8.50;99.90
12682;DHT22;6405;59.208;18.216;2023-05-14T05:24:40;8.70;99.90
12682;DHT22;6405;59.208;18.216;2023-05-14T05:27:06;8.80;99.90
12682;DHT22;6405;59.208;18.216;2023-05-14T05:29:33;9.10;99.90
12682;DHT22;6405;59.208;18.216;2023-05-14T05:31:59;9.20;99.90
12682;DHT22;6405;59.208;18.216;2023-05-14T05:34:25;9.30;99.90
12682;DHT22;6405;59.208;18.216;2023-05-14T05:36:50;9.40;99.90
12682;DHT22;6405;59.208;18.216;2023-05-14T05:39:16;9.50;99.90
12682;DHT22;6405;59.208;18.216;2023-05-14T05:41:41;9.60;99.90
12682;DHT22;6405;59.208;18.216;2023-05-14T05:44:08;9.70;99.90
12682;DHT22;6405;59.208;18.216;2023-05-14T05:46:33;9.80;99.90
12682;DHT22;6405;59.208;18.216;2023-05-14T05:48:59;9.90;99.90
12682;DHT22;6405;59.208;18.216;2023-05-14T05:51:25;10.00;99.90
12682;DHT22;6405;59.208;18.216;2023-05-14T05:53:51;10.10;99.90
12682;DHT22;6405;59.208;18.216;2023-05-14T05:56:16;10.10;99.90
12682;DHT22;6405;59.208;18.216;2023-05-14T05:58:42;10.40;99.90
12682;DHT22;6405;59.208;18.216;2023-05-14T06:01:07;10.40;99.90
12682;DHT22;6405;59.208;18.216;2023-05-14T06:03:33;10.60;99.90
12682;DHT22;6405;59.208;18.216;2023-05-14T06:05:59;10.60;99.90
12682;DHT22;6405;59.208;18.216;2023-05-14T06:08:24;10.70;99.90
12682;DHT22;6405;59.208;18.216;2023-05-14T06:10:50;10.70;99.90
12682;DHT22;6405;59.208;18.216;2023-05-14T06:13:16;10.80;99.90
12682;DHT22;6405;59.208;18.216;2023-05-14T06:15:41;11.00;99.90
12682;DHT22;6405;59.208;18.216;2023-05-14T06:18:07;11.10;99.90
12682;DHT22;6405;59.208;18.216;2023-05-14T06:20:33;11.10;99.90
12682;DHT22;6405;59.208;18.216;2023-05-14T06:22:59;11.20;99.90
12682;DHT22;6405;59.208;18.216;2023-05-14T06:25:24;11.30;99.90
12682;DHT22;6405;59.208;18.216;2023-05-14T06:27:50;11.40;99.90
12682;DHT22;6405;59.208;18.216;2023-05-14T06:30:16;11.50;99.90
12682;DHT22;6405;59.208;18.216;2023-05-14T06:32:41;11.60;99.90
12682;DHT22;6405;59.208;18.216;2023-05-14T06:35:08;11.70;99.90
12682;DHT22;6405;59.208;18.216;2023-05-14T06:37:33;11.80;99.90
12682;DHT22;6405;59.208;18.216;2023-05-14T06:40:00;11.90;99.90
12682;DHT22;6405;59.208;18.216;2023-05-14T06:42:25;12.00;99.90
12682;DHT22;6405;59.208;18.216;2023-05-14T06:44:51;12.10;99.90
12682;DHT22;6405;59.208;18.216;2023-05-14T06:47:17;12.20;99.90
12682;DHT22;6405;59.208;18.216;2023-05-14T06:49:42;12.30;99.90
12682;DHT22;6405;59.208;18.216;2023-05-14T06:52:08;12.40;99.90
12682;DHT22;6405;59.208;18.216;2023-05-14T06:54:34;12.50;99.90
12682;DHT22;6405;59.208;18.216;2023-05-14T06:56:59;12.80;99.90
12682;DHT22;6405;59.208;18.216;2023-05-14T06:59:25;12.70;99.90
12682;DHT22;6405;59.208;18.216;2023-05-14T07:01:50;13.00;99.90
12682;DHT22;6405;59.208;18.216;2023-05-14T07:04:16;13.10;99.90
12682;DHT22;6405;59.208;18.216;2023-05-14T07:06:42;13.20;99.90
12682;DHT22;6405;59.208;18.216;2023-05-14T07:09:07;13.20;99.90
12682;DHT22;6405;59.208;18.216;2023-05-14T07:11:33;13.30;99.90
12682;DHT22;6405;59.208;18.216;2023-05-14T07:13:59;13.40;99.90
12682;DHT22;6405;59.208;18.216;2023-05-14T07:16:25;13.50;99.90
12682;DHT22;6405;59.208;18.216;2023-05-14T07:18:51;13.70;99.90
12682;DHT22;6405;59.208;18.216;2023-05-14T07:21:17;13.70;99.90
12682;DHT22;6405;59.208;18.216;2023-05-14T07:23:42;13.90;99.90
12682;DHT22;6405;59.208;18.216;2023-05-14T07:26:08;14.10;99.90
12682;DHT22;6405;59.208;18.216;2023-05-14T07:28:34;14.30;99.90
12682;DHT22;6405;59.208;18.216;2023-05-14T07:30:59;14.50;99.90
12682;DHT22;6405;59.208;18.216;2023-05-14T07:33:25;14.60;99.90
12682;DHT22;6405;59.208;18.216;2023-05-14T07:35:51;14.80;99.90
12682;DHT22;6405;59.208;18.216;2023-05-14T07:38:18;15.00;99.90
12682;DHT22;6405;59.208;18.216;2023-05-14T07:40:45;15.20;99.90
12682;DHT22;6405;59.208;18.216;2023-05-14T07:43:10;15.40;99.90
12682;DHT22;6405;59.208;18.216;2023-05-14T07:45:36;15.50;99.90
12682;DHT22;6405;59.208;18.216;2023-05-14T07:48:03;15.60;99.90
12682;DHT22;6405;59.208;18.216;2023-05-14T07:50:29;15.80;99.90
12682;DHT22;6405;59.208;18.216;2023-05-14T07:52:55;15.90;99.90
12682;DHT22;6405;59.208;18.216;2023-05-14T07:55:21;16.00;99.90
12682;DHT22;6405;59.208;18.216;2023-05-14T07:57:46;16.10;99.90
12682;DHT22;6405;59.208;18.216;2023-05-14T08:00:12;16.20;99.90
12682;DHT22;6405;59.208;18.216;2023-05-14T08:02:38;16.30;99.90
12682;DHT22;6405;59.208;18.216;2023-05-14T08:05:04;16.70;99.90
12682;DHT22;6405;59.208;18.216;2023-05-14T08:07:30;16.70;99.90
12682;DHT22;6405;59.208;18.216;2023-05-14T08:09:56;16.90;99.90
12682;DHT22;6405;59.208;18.216;2023-05-14T08:12:22;17.20;99.90
12682;DHT22;6405;59.208;18.216;2023-05-14T08:14:47;17.60;99.90
12682;DHT22;6405;59.208;18.216;2023-05-14T08:17:13;17.90;99.90
12682;DHT22;6405;59.208;18.216;2023-05-14T08:19:39;18.20;99.90
12682;DHT22;6405;59.208;18.216;2023-05-14T08:22:04;18.50;99.90
12682;DHT22;6405;59.208;18.216;2023-05-14T08:24:30;18.70;99.90
12682;DHT22;6405;59.208;18.216;2023-05-14T08:26:56;19.00;99.90
12682;DHT22;6405;59.208;18.216;2023-05-14T08:29:22;19.20;99.90
12682;DHT22;6405;59.208;18.216;2023-05-14T08:31:48;19.30;99.90
12682;DHT22;6405;59.208;18.216;2023-05-14T08:34:15;19.60;99.90
12682;DHT22;6405;59.208;18.216;2023-05-14T08:36:41;19.80;99.90
12682;DHT22;6405;59.208;18.216;2023-05-14T08:39:06;19.90;99.90
12682;DHT22;6405;59.208;18.216;2023-05-14T08:41:32;20.00;99.90
12682;DHT22;6405;59.208;18.216;2023-05-14T08:44:35;20.10;99.90
12682;DHT22;6405;59.208;18.216;2023-05-14T08:47:03;20.30;99.90
12682;DHT22;6405;59.208;18.216;2023-05-14T08:52:02;20.20;99.90
12682;DHT22;6405;59.208;18.216;2023-05-14T08:54:29;20.10;99.90
12682;DHT22;6405;59.208;18.216;2023-05-14T08:56:57;20.20;99.90
12682;DHT22;6405;59.208;18.216;2023-05-14T08:59:23;20.20;99.90
12682;DHT22;6405;59.208;18.216;2023-05-14T09:01:52;20.40;99.90
12682;DHT22;6405;59.208;18.216;2023-05-14T09:04:22;20.50;99.90
12682;DHT22;6405;59.208;18.216;2023-05-14T09:06:50;20.40;99.90
12682;DHT22;6405;59.208;18.216;2023-05-14T09:09:17;20.30;99.90
12682;DHT22;6405;59.208;18.216;2023-05-14T09:11:46;20.40;99.90
12682;DHT22;6405;59.208;18.216;2023-05-14T09:14:12;20.60;99.90
12682;DHT22;6405;59.208;18.216;2023-05-14T09:16:39;20.60;99.90
12682;DHT22;6405;59.208;18.216;2023-05-14T09:19:06;20.60;99.90
12682;DHT22;6405;59.208;18.216;2023-05-14T09:21:32;20.60;99.90
12682;DHT22;6405;59.208;18.216;2023-05-14T09:23:58;20.70;99.90
12682;DHT22;6405;59.208;18.216;2023-05-14T09:26:25;20.80;99.90
12682;DHT22;6405;59.208;18.216;2023-05-14T09:28:55;20.80;99.90
12682;DHT22;6405;59.208;18.216;2023-05-14T09:31:21;20.80;99.90
12682;DHT22;6405;59.208;18.216;2023-05-14T09:33:51;20.80;99.90
12682;DHT22;6405;59.208;18.216;2023-05-14T09:36:18;20.60;99.90
12682;DHT22;6405;59.208;18.216;2023-05-14T09:38:44;20.70;99.90
12682;DHT22;6405;59.208;18.216;2023-05-14T09:41:10;20.70;99.90
12682;DHT22;6405;59.208;18.216;2023-05-14T09:43:35;20.60;99.90
12682;DHT22;6405;59.208;18.216;2023-05-14T09:46:01;20.70;99.90
12682;DHT22;6405;59.208;18.216;2023-05-14T09:48:27;20.80;99.90
12682;DHT22;6405;59.208;18.216;2023-05-14T09:50:53;21.00;99.90
12682;DHT22;6405;59.208;18.216;2023-05-14T09:53:19;21.00;99.90
12682;DHT22;6405;59.208;18.216;2023-05-14T09:55:45;21.00;99.90
12682;DHT22;6405;59.208;18.216;2023-05-14T09:58:10;21.20;99.90
12682;DHT22;6405;59.208;18.216;2023-05-14T10:00:38;21.40;99.90
12682;DHT22;6405;59.208;18.216;2023-05-14T10:03:07;21.50;99.90
12682;DHT22;6405;59.208;18.216;2023-05-14T10:05:35;21.60;99.90
12682;DHT22;6405;59.208;18.216;2023-05-14T10:08:08;21.70;99.90
12682;DHT22;6405;59.208;18.216;2023-05-14T10:10:34;21.60;99.90
12682;DHT22;6405;59.208;18.216;2023-05-14T10:13:13;21.80;99.90
12682;DHT22;6405;59.208;18.216;2023-05-14T10:18:39;22.00;99.90
12682;DHT22;6405;59.208;18.216;2023-05-14T10:21:06;22.10;99.90
12682;DHT22;6405;59.208;18.216;2023-05-14T10:23:33;22.30;99.90
12682;DHT22;6405;59.208;18.216;2023-05-14T10:26:02;22.20;99.90
12682;DHT22;6405;59.208;18.216;2023-05-14T10:28:29;22.20;99.90
12682;DHT22;6405;59.208;18.216;2023-05-14T10:30:56;22.20;99.90
12682;DHT22;6405;59.208;18.216;2023-05-14T10:33:21;22.40;99.90
12682;DHT22;6405;59.208;18.216;2023-05-14T10:38:16;22.20;99.90
12682;DHT22;6405;59.208;18.216;2023-05-14T10:40:42;22.30;99.90
12682;DHT22;6405;59.208;18.216;2023-05-14T10:43:08;22.50;99.90
12682;DHT22;6405;59.208;18.216;2023-05-14T10:45:35;22.50;99.90
12682;DHT22;6405;59.208;18.216;2023-05-14T10:48:01;22.50;99.90
12682;DHT22;6405;59.208;18.216;2023-05-14T10:50:27;22.40;99.90
12682;DHT22;6405;59.208;18.216;2023-05-14T10:52:54;22.50;99.90
12682;DHT22;6405;59.208;18.216;2023-05-14T10:55:21;22.50;99.90
12682;DHT22;6405;59.208;18.216;2023-05-14T10:57:48;22.60;99.90
12682;DHT22;6405;59.208;18.216;2023-05-14T11:00:14;22.70;99.90
12682;DHT22;6405;59.208;18.216;2023-05-14T11:02:42;22.80;99.90
12682;DHT22;6405;59.208;18.216;2023-05-14T11:05:13;22.80;99.90
12682;DHT22;6405;59.208;18.216;2023-05-14T11:10:13;23.00;99.90
12682;DHT22;6405;59.208;18.216;2023-05-14T11:12:40;23.00;99.90
12682;DHT22;6405;59.208;18.216;2023-05-14T11:15:11;22.80;99.90
12682;DHT22;6405;59.208;18.216;2023-05-14T11:17:39;22.90;99.90
12682;DHT22;6405;59.208;18.216;2023-05-14T11:20:06;23.10;99.90
12682;DHT22;6405;59.208;18.216;2023-05-14T11:22:34;23.20;99.90
12682;DHT22;6405;59.208;18.216;2023-05-14T11:25:00;23.00;99.90
12682;DHT22;6405;59.208;18.216;2023-05-14T11:27:26;23.00;99.90
12682;DHT22;6405;59.208;18.216;2023-05-14T11:29:52;22.90;99.90
12682;DHT22;6405;59.208;18.216;2023-05-14T11:32:18;23.10;99.90
12682;DHT22;6405;59.208;18.216;2023-05-14T11:34:45;23.00;99.90
12682;DHT22;6405;59.208;18.216;2023-05-14T11:37:12;23.30;99.90
12682;DHT22;6405;59.208;18.216;2023-05-14T11:39:44;23.30;99.90
12682;DHT22;6405;59.208;18.216;2023-05-14T11:42:11;23.30;99.90
12682;DHT22;6405;59.208;18.216;2023-05-14T11:44:38;23.30;99.90
12682;DHT22;6405;59.208;18.216;2023-05-14T11:47:04;23.30;99.90
12682;DHT22;6405;59.208;18.216;2023-05-14T11:49:30;23.20;99.90
12682;DHT22;6405;59.208;18.216;2023-05-14T11:51:57;23.20;99.90
12682;DHT22;6405;59.208;18.216;2023-05-14T11:54:33;23.20;99.90
12682;DHT22;6405;59.208;18.216;2023-05-14T11:57:01;23.20;99.90
12682;DHT22;6405;59.208;18.216;2023-05-14T11:59:28;23.10;99.90
12682;DHT22;6405;59.208;18.216;2023-05-14T12:01:54;23.10;99.90
12682;DHT22;6405;59.208;18.216;2023-05-14T12:04:20;23.10;99.90
12682;DHT22;6405;59.208;18.216;2023-05-14T12:06:51;23.00;99.90
12682;DHT22;6405;59.208;18.216;2023-05-14T12:09:18;23.00;99.90
12682;DHT22;6405;59.208;18.216;2023-05-14T12:11:45;23.10;99.90
12682;DHT22;6405;59.208;18.216;2023-05-14T12:14:19;22.90;99.90
12682;DHT22;6405;59.208;18.216;2023-05-14T12:16:46;23.10;99.90
12682;DHT22;6405;59.208;18.216;2023-05-14T12:19:18;23.30;99.90
12682;DHT22;6405;59.208;18.216;2023-05-14T12:21:46;23.40;99.90
12682;DHT22;6405;59.208;18.216;2023-05-14T12:24:14;23.20;99.90
12682;DHT22;6405;59.208;18.216;2023-05-14T12:26:44;23.30;99.90
12682;DHT22;6405;59.208;18.216;2023-05-14T12:29:12;23.30;99.90
12682;DHT22;6405;59.208;18.216;2023-05-14T12:31:44;23.40;99.90
12682;DHT22;6405;59.208;18.216;2023-05-14T12:34:10;23.20;99.90
12682;DHT22;6405;59.208;18.216;2023-05-14T12:36:36;23.10;99.90
12682;DHT22;6405;59.208;18.216;2023-05-14T12:39:02;23.10;99.90
12682;DHT22;6405;59.208;18.216;2023-05-14T12:41:29;23.30;99.90
12682;DHT22;6405;59.208;18.216;2023-05-14T12:43:55;23.40;99.90
12682;DHT22;6405;59.208;18.216;2023-05-14T12:46:21;23.20;99.90
12682;DHT22;6405;59.208;18.216;2023-05-14T12:48:47;23.20;99.90
12682;DHT22;6405;59.208;18.216;2023-05-14T12:51:13;23.10;99.90
12682;DHT22;6405;59.208;18.216;2023-05-14T12:53:39;23.20;99.90
12682;DHT22;6405;59.208;18.216;2023-05-14T12:56:05;23.20;99.90
12682;DHT22;6405;59.208;18.216;2023-05-14T12:58:31;23.20;99.90
12682;DHT22;6405;59.208;18.216;2023-05-14T13:00:57;23.20;99.90
12682;DHT22;6405;59.208;18.216;2023-05-14T13:03:22;23.30;99.90
12682;DHT22;6405;59.208;18.216;2023-05-14T13:05:49;23.30;99.90
12682;DHT22;6405;59.208;18.216;2023-05-14T13:08:15;23.20;99.90
12682;DHT22;6405;59.208;18.216;2023-05-14T13:10:43;23.10;99.90
12682;DHT22;6405;59.208;18.216;2023-05-14T13:13:09;22.90;99.90
12682;DHT22;6405;59.208;18.216;2023-05-14T13:15:36;23.00;99.90
12682;DHT22;6405;59.208;18.216;2023-05-14T13:18:02;22.80;99.90
12682;DHT22;6405;59.208;18.216;2023-05-14T13:20:28;22.90;99.90
12682;DHT22;6405;59.208;18.216;2023-05-14T13:22:55;22.70;99.90
12682;DHT22;6405;59.208;18.216;2023-05-14T13:25:21;22.90;99.90
12682;DHT22;6405;59.208;18.216;2023-05-14T13:27:47;22.80;99.90
12682;DHT22;6405;59.208;18.216;2023-05-14T13:30:16;23.10;99.90
12682;DHT22;6405;59.208;18.216;2023-05-14T13:32:42;23.10;99.90
12682;DHT22;6405;59.208;18.216;2023-05-14T13:35:08;23.10;99.90
12682;DHT22;6405;59.208;18.216;2023-05-14T13:37:34;22.90;99.90
12682;DHT22;6405;59.208;18.216;2023-05-14T13:40:00;23.00;99.90
12682;DHT22;6405;59.208;18.216;2023-05-14T13:42:26;22.90;99.90
12682;DHT22;6405;59.208;18.216;2023-05-14T13:44:51;23.00;99.90
12682;DHT22;6405;59.208;18.216;2023-05-14T13:47:17;23.00;99.90
12682;DHT22;6405;59.208;18.216;2023-05-14T13:49:43;23.10;99.90
12682;DHT22;6405;59.208;18.216;2023-05-14T13:52:08;23.20;99.90
12682;DHT22;6405;59.208;18.216;2023-05-14T13:54:34;23.30;99.90
12682;DHT22;6405;59.208;18.216;2023-05-14T13:57:00;23.20;99.90
12682;DHT22;6405;59.208;18.216;2023-05-14T13:59:25;23.30;99.90
12682;DHT22;6405;59.208;18.216;2023-05-14T14:01:52;23.40;99.90
12682;DHT22;6405;59.208;18.216;2023-05-14T14:04:17;23.40;99.90
12682;DHT22;6405;59.208;18.216;2023-05-14T14:06:44;23.50;99.90
12682;DHT22;6405;59.208;18.216;2023-05-14T14:09:10;23.30;99.90
12682;DHT22;6405;59.208;18.216;2023-05-14T14:11:38;23.30;99.90
12682;DHT22;6405;59.208;18.216;2023-05-14T14:14:03;23.20;99.90
12682;DHT22;6405;59.208;18.216;2023-05-14T14:16:29;23.20;99.90
12682;DHT22;6405;59.208;18.216;2023-05-14T14:18:55;23.10;99.90
12682;DHT22;6405;59.208;18.216;2023-05-14T14:21:21;23.10;99.90
12682;DHT22;6405;59.208;18.216;2023-05-14T14:23:47;23.00;99.90
12682;DHT22;6405;59.208;18.216;2023-05-14T14:26:13;23.00;99.90
12682;DHT22;6405;59.208;18.216;2023-05-14T14:28:38;23.10;99.90
12682;DHT22;6405;59.208;18.216;2023-05-14T14:31:05;23.10;99.90
12682;DHT22;6405;59.208;18.216;2023-05-14T14:33:31;23.20;99.90
12682;DHT22;6405;59.208;18.216;2023-05-14T14:35:56;23.00;99.90
12682;DHT22;6405;59.208;18.216;2023-05-14T14:38:23;23.00;99.90
12682;DHT22;6405;59.208;18.216;2023-05-14T14:40:48;23.00;99.90
12682;DHT22;6405;59.208;18.216;2023-05-14T14:43:14;23.10;99.90
12682;DHT22;6405;59.208;18.216;2023-05-14T14:45:40;23.20;99.90
12682;DHT22;6405;59.208;18.216;2023-05-14T14:48:26;23.10;99.90
12682;DHT22;6405;59.208;18.216;2023-05-14T14:50:53;23.20;99.90
12682;DHT22;6405;59.208;18.216;2023-05-14T14:53:20;23.10;99.90
12682;DHT22;6405;59.208;18.216;2023-05-14T14:55:47;22.90;99.90
12682;DHT22;6405;59.208;18.216;2023-05-14T14:58:13;22.80;99.90
12682;DHT22;6405;59.208;18.216;2023-05-14T15:00:39;22.80;99.90
12682;DHT22;6405;59.208;18.216;2023-05-14T15:03:05;22.70;99.90
12682;DHT22;6405;59.208;18.216;2023-05-14T15:05:31;22.70;99.90
12682;DHT22;6405;59.208;18.216;2023-05-14T15:07:57;22.50;99.90
12682;DHT22;6405;59.208;18.216;2023-05-14T15:10:22;22.60;99.90
12682;DHT22;6405;59.208;18.216;2023-05-14T15:12:48;22.40;99.90
12682;DHT22;6405;59.208;18.216;2023-05-14T15:15:14;22.30;99.90
12682;DHT22;6405;59.208;18.216;2023-05-14T15:17:39;22.30;99.90
12682;DHT22;6405;59.208;18.216;2023-05-14T15:20:06;22.20;99.90
12682;DHT22;6405;59.208;18.216;2023-05-14T15:22:32;22.00;99.90
12682;DHT22;6405;59.208;18.216;2023-05-14T15:24:58;21.90;99.90
12682;DHT22;6405;59.208;18.216;2023-05-14T15:27:24;21.80;99.90
12682;DHT22;6405;59.208;18.216;2023-05-14T15:29:50;21.70;99.90
12682;DHT22;6405;59.208;18.216;2023-05-14T15:32:16;21.60;99.90
12682;DHT22;6405;59.208;18.216;2023-05-14T15:34:41;21.40;99.90
12682;DHT22;6405;59.208;18.216;2023-05-14T15:37:07;21.40;99.90
12682;DHT22;6405;59.208;18.216;2023-05-14T15:39:33;21.30;99.90
12682;DHT22;6405;59.208;18.216;2023-05-14T15:41:58;21.10;99.90
12682;DHT22;6405;59.208;18.216;2023-05-14T15:44:24;21.00;99.90
12682;DHT22;6405;59.208;18.216;2023-05-14T15:46:50;21.00;99.90
12682;DHT22;6405;59.208;18.216;2023-05-14T15:49:16;21.00;99.90